sensor_id;sensor_type;location;lat;lon;timestamp;pressure;altitude;pressure_sealevel;temperature;humidity
12146;BME280;6136;47.032;15.398;2023-01-30T00:01:53;97979.34;;;-1.42;100.00
12146;BME280;6136;47.032;15.398;2023-01-30T00:04:22;97975.03;;;-1.43;100.00
12146;BME280;6136;47.032;15.398;2023-01-30T00:06:50;97982.03;;;-1.49;100.00
12146;BME280;6136;47.032;15.398;2023-01-30T00:09:18;97971.69;;;-1.62;100.00
12146;BME280;6136;47.032;15.398;2023-01-30T00:11:46;97968.28;;;-1.67;100.00
12146;BME280;6136;47.032;15.398;2023-01-30T00:14:14;97977.00;;;-1.74;100.00
12146;BME280;6136;47.032;15.398;2023-01-30T00:16:44;97972.66;;;-1.73;100.00
12146;BME280;6136;47.032;15.398;2023-01-30T00:19:12;97969.22;;;-1.74;100.00
12146;BME280;6136;47.032;15.398;2023-01-30T00:21:40;97959.63;;;-1.67;100.00
12146;BME280;6136;47.032;15.398;2023-01-30T00:24:08;97950.16;;;-1.71;100.00
12146;BME280;6136;47.032;15.398;2023-01-30T00:26:37;97950.09;;;-1.68;100.00
12146;BME280;6136;47.032;15.398;2023-01-30T00:29:07;97948.41;;;-1.72;100.00
12146;BME280;6136;47.032;15.398;2023-01-30T00:31:35;97945.06;;;-1.89;100.00
12146;BME280;6136;47.032;15.398;2023-01-30T00:34:05;97948.63;;;-2.03;100.00
12146;BME280;6136;47.032;15.398;2023-01-30T00:36:33;97940.84;;;-2.01;100.00
12146;BME280;6136;47.032;15.398;2023-01-30T00:39:01;97943.41;;;-2.00;100.00
12146;BME280;6136;47.032;15.398;2023-01-30T00:41:31;97931.31;;;-2.01;100.00
12146;BME280;6136;47.032;15.398;2023-01-30T00:44:13;97938.31;;;-2.15;100.00
12146;BME280;6136;47.032;15.398;2023-01-30T00:46:58;97940.06;;;-2.20;100.00
12146;BME280;6136;47.032;15.398;2023-01-30T00:49:36;97938.34;;;-2.21;100.00
12146;BME280;6136;47.032;15.398;2023-01-30T00:52:04;97936.69;;;-2.32;100.00
12146;BME280;6136;47.032;15.398;2023-01-30T00:54:33;97940.19;;;-2.38;100.00
12146;BME280;6136;47.032;15.398;2023-01-30T00:57:01;97936.69;;;-2.37;100.00
12146;BME280;6136;47.032;15.398;2023-01-30T00:59:30;97945.34;;;-2.32;100.00
12146;BME280;6136;47.032;15.398;2023-01-30T01:01:58;97945.34;;;-2.32;100.00
12146;BME280;6136;47.032;15.398;2023-01-30T01:04:26;97940.16;;;-2.35;100.00
12146;BME280;6136;47.032;15.398;2023-01-30T01:06:56;97939.28;;;-2.34;100.00
12146;BME280;6136;47.032;15.398;2023-01-30T01:09:24;97948.88;;;-2.45;100.00
12146;BME280;6136;47.032;15.398;2023-01-30T01:11:52;97942.00;;;-2.52;100.00
12146;BME280;6136;47.032;15.398;2023-01-30T01:14:20;97936.81;;;-2.55;100.00
12146;BME280;6136;47.032;15.398;2023-01-30T01:16:48;97933.31;;;-2.51;100.00
12146;BME280;6136;47.032;15.398;2023-01-30T01:19:17;97919.47;;;-2.50;100.00
12146;BME280;6136;47.032;15.398;2023-01-30T01:21:45;97919.47;;;-2.50;100.00
12146;BME280;6136;47.032;15.398;2023-01-30T01:24:15;97909.13;;;-2.53;100.00
12146;BME280;6136;47.032;15.398;2023-01-30T01:26:44;97923.00;;;-2.63;100.00
12146;BME280;6136;47.032;15.398;2023-01-30T01:29:13;97921.31;;;-2.67;100.00
12146;BME280;6136;47.032;15.398;2023-01-30T01:31:42;97925.63;;;-2.68;100.00
12146;BME280;6136;47.032;15.398;2023-01-30T01:34:11;97919.59;;;-2.71;100.00
12146;BME280;6136;47.032;15.398;2023-01-30T01:36:42;97924.78;;;-2.73;100.00
12146;BME280;6136;47.032;15.398;2023-01-30T01:39:22;97924.81;;;-2.75;100.00
12146;BME280;6136;47.032;15.398;2023-01-30T01:41:50;97919.63;;;-2.75;100.00
12146;BME280;6136;47.032;15.398;2023-01-30T01:44:17;97923.06;;;-2.72;100.00
12146;BME280;6136;47.032;15.398;2023-01-30T01:46:48;97919.63;;;-2.78;100.00
12146;BME280;6136;47.032;15.398;2023-01-30T01:49:21;97896.34;;;-2.93;100.00
12146;BME280;6136;47.032;15.398;2023-01-30T01:51:54;97913.66;;;-3.01;100.00
12146;BME280;6136;47.032;15.398;2023-01-30T01:54:30;97906.75;;;-3.11;100.00
12146;BME280;6136;47.032;15.398;2023-01-30T01:57:03;97905.03;;;-3.04;100.00
12146;BME280;6136;47.032;15.398;2023-01-30T01:59:35;97902.44;;;-3.00;100.00
12146;BME280;6136;47.032;15.398;2023-01-30T02:02:09;97905.84;;;-2.93;100.00
12146;BME280;6136;47.032;15.398;2023-01-30T02:04:42;97892.94;;;-3.04;100.00
12146;BME280;6136;47.032;15.398;2023-01-30T02:07:37;97895.53;;;-3.04;100.00
12146;BME280;6136;47.032;15.398;2023-01-30T02:10:12;97900.72;;;-3.08;100.00
12146;BME280;6136;47.032;15.398;2023-01-30T02:12:41;97883.44;;;-3.09;100.00
12146;BME280;6136;47.032;15.398;2023-01-30T02:15:10;97893.81;;;-3.08;100.00
12146;BME280;6136;47.032;15.398;2023-01-30T02:17:38;97890.31;;;-3.01;100.00
12146;BME280;6136;47.032;15.398;2023-01-30T02:20:17;97886.00;;;-3.02;100.00
12146;BME280;6136;47.032;15.398;2023-01-30T02:23:07;97884.31;;;-3.06;100.00
12146;BME280;6136;47.032;15.398;2023-01-30T02:26:18;97878.25;;;-3.06;100.00
12146;BME280;6136;47.032;15.398;2023-01-30T02:29:08;97874.81;;;-3.07;100.00
12146;BME280;6136;47.032;15.398;2023-01-30T02:31:46;97873.94;;;-3.06;100.00
12146;BME280;6136;47.032;15.398;2023-01-30T02:34:32;97874.81;;;-3.16;100.00
12146;BME280;6136;47.032;15.398;2023-01-30T02:37:10;97868.84;;;-3.29;100.00
12146;BME280;6136;47.032;15.398;2023-01-30T02:39:54;97866.25;;;-3.39;100.00
12146;BME280;6136;47.032;15.398;2023-01-30T02:42:31;97855.91;;;-3.36;100.00
12146;BME280;6136;47.032;15.398;2023-01-30T02:45:08;97864.53;;;-3.39;100.00
12146;BME280;6136;47.032;15.398;2023-01-30T02:47:43;97854.16;;;-3.34;100.00
12146;BME280;6136;47.032;15.398;2023-01-30T02:50:18;97855.88;;;-3.33;100.00
12146;BME280;6136;47.032;15.398;2023-01-30T02:52:48;97854.16;;;-3.28;100.00
12146;BME280;6136;47.032;15.398;2023-01-30T02:55:18;97846.38;;;-3.40;100.00
12146;BME280;6136;47.032;15.398;2023-01-30T02:57:47;97851.59;;;-3.42;100.00
12146;BME280;6136;47.032;15.398;2023-01-30T03:00:18;97849.03;;;-3.53;100.00
12146;BME280;6136;47.032;15.398;2023-01-30T03:03:01;97855.06;;;-3.52;100.00
12146;BME280;6136;47.032;15.398;2023-01-30T03:06:03;97847.28;;;-3.47;100.00
12146;BME280;6136;47.032;15.398;2023-01-30T03:08:43;97860.22;;;-3.47;100.00
12146;BME280;6136;47.032;15.398;2023-01-30T03:11:16;97847.28;;;-3.44;100.00
12146;BME280;6136;47.032;15.398;2023-01-30T03:13:54;97849.00;;;-3.43;100.00
12146;BME280;6136;47.032;15.398;2023-01-30T03:16:30;97842.09;;;-3.44;100.00
12146;BME280;6136;47.032;15.398;2023-01-30T03:19:02;97846.41;;;-3.43;100.00
12146;BME280;6136;47.032;15.398;2023-01-30T03:21:32;97833.47;;;-3.53;100.00
12146;BME280;6136;47.032;15.398;2023-01-30T03:24:00;97849.00;;;-3.46;100.00
12146;BME280;6136;47.032;15.398;2023-01-30T03:26:30;97836.09;;;-3.49;100.00
12146;BME280;6136;47.032;15.398;2023-01-30T03:29:00;97834.34;;;-3.49;100.00
12146;BME280;6136;47.032;15.398;2023-01-30T03:31:29;97832.66;;;-3.65;100.00
12146;BME280;6136;47.032;15.398;2023-01-30T03:34:03;97834.38;;;-3.70;100.00
12146;BME280;6136;47.032;15.398;2023-01-30T03:36:33;97826.63;;;-3.66;100.00
12146;BME280;6136;47.032;15.398;2023-01-30T03:39:03;97827.47;;;-3.68;100.00
12146;BME280;6136;47.032;15.398;2023-01-30T03:41:33;97824.03;;;-3.67;100.00
12146;BME280;6136;47.032;15.398;2023-01-30T03:44:02;97828.31;;;-3.62;100.00
12146;BME280;6136;47.032;15.398;2023-01-30T03:46:31;97814.56;;;-3.82;100.00
12146;BME280;6136;47.032;15.398;2023-01-30T03:48:59;97822.31;;;-3.74;100.00
12146;BME280;6136;47.032;15.398;2023-01-30T03:51:29;97820.59;;;-3.74;100.00
12146;BME280;6136;47.032;15.398;2023-01-30T03:53:57;97822.31;;;-3.76;100.00
12146;BME280;6136;47.032;15.398;2023-01-30T03:56:25;97818.00;;;-3.77;100.00
12146;BME280;6136;47.032;15.398;2023-01-30T03:58:53;97811.94;;;-3.77;100.00
12146;BME280;6136;47.032;15.398;2023-01-30T04:01:31;97816.28;;;-3.75;100.00
12146;BME280;6136;47.032;15.398;2023-01-30T04:03:59;97812.81;;;-3.74;100.00
12146;BME280;6136;47.032;15.398;2023-01-30T04:06:28;97799.94;;;-3.94;100.00
12146;BME280;6136;47.032;15.398;2023-01-30T04:08:57;97804.22;;;-3.82;100.00
12146;BME280;6136;47.032;15.398;2023-01-30T04:11:35;97789.53;;;-3.84;100.00
12146;BME280;6136;47.032;15.398;2023-01-30T04:14:03;97789.56;;;-3.86;100.00
12146;BME280;6136;47.032;15.398;2023-01-30T04:16:37;97793.88;;;-3.88;100.00
12146;BME280;6136;47.032;15.398;2023-01-30T04:19:24;97786.13;;;-3.94;100.00
12146;BME280;6136;47.032;15.398;2023-01-30T04:21:54;97784.41;;;-4.01;100.00
12146;BME280;6136;47.032;15.398;2023-01-30T04:24:23;97788.69;;;-3.97;100.00
12146;BME280;6136;47.032;15.398;2023-01-30T04:26:51;97763.69;;;-4.15;100.00
12146;BME280;6136;47.032;15.398;2023-01-30T04:29:19;97776.63;;;-4.03;100.00
12146;BME280;6136;47.032;15.398;2023-01-30T04:31:49;97777.50;;;-3.93;100.00
12146;BME280;6136;47.032;15.398;2023-01-30T04:34:21;97780.91;;;-3.91;100.00
12146;BME280;6136;47.032;15.398;2023-01-30T04:36:49;97774.88;;;-3.90;100.00
12146;BME280;6136;47.032;15.398;2023-01-30T04:39:19;97780.06;;;-3.87;100.00
12146;BME280;6136;47.032;15.398;2023-01-30T04:41:48;97766.25;;;-3.92;100.00
12146;BME280;6136;47.032;15.398;2023-01-30T04:44:16;97761.97;;;-3.98;100.00
12146;BME280;6136;47.032;15.398;2023-01-30T04:46:57;97769.75;;;-4.11;100.00
12146;BME280;6136;47.032;15.398;2023-01-30T04:49:25;97761.13;;;-4.10;100.00
12146;BME280;6136;47.032;15.398;2023-01-30T04:51:54;97763.72;;;-4.18;100.00
12146;BME280;6136;47.032;15.398;2023-01-30T04:54:23;97755.94;;;-4.15;100.00
12146;BME280;6136;47.032;15.398;2023-01-30T04:56:51;97756.84;;;-4.23;100.00
12146;BME280;6136;47.032;15.398;2023-01-30T04:59:20;97755.09;;;-4.21;100.00
12146;BME280;6136;47.032;15.398;2023-01-30T05:01:49;97754.25;;;-4.17;100.00
12146;BME280;6136;47.032;15.398;2023-01-30T05:04:17;97756.81;;;-4.19;100.00
12146;BME280;6136;47.032;15.398;2023-01-30T05:06:45;97752.50;;;-4.18;100.00
12146;BME280;6136;47.032;15.398;2023-01-30T05:09:13;97755.09;;;-4.18;100.00
12146;BME280;6136;47.032;15.398;2023-01-30T05:11:43;97744.75;;;-4.17;100.00
12146;BME280;6136;47.032;15.398;2023-01-30T05:14:11;97743.00;;;-4.12;100.00
12146;BME280;6136;47.032;15.398;2023-01-30T05:16:39;97732.66;;;-4.15;100.00
12146;BME280;6136;47.032;15.398;2023-01-30T05:19:08;97734.41;;;-4.23;100.00
12146;BME280;6136;47.032;15.398;2023-01-30T05:21:37;97738.72;;;-4.17;100.00
12146;BME280;6136;47.032;15.398;2023-01-30T05:24:06;97736.13;;;-4.30;100.00
12146;BME280;6136;47.032;15.398;2023-01-30T05:26:34;97736.13;;;-4.28;100.00
12146;BME280;6136;47.032;15.398;2023-01-30T05:29:04;97731.84;;;-4.24;100.00
12146;BME280;6136;47.032;15.398;2023-01-30T05:31:32;97736.13;;;-4.16;100.00
12146;BME280;6136;47.032;15.398;2023-01-30T05:34:01;97724.06;;;-4.17;100.00
12146;BME280;6136;47.032;15.398;2023-01-30T05:36:29;97719.72;;;-4.13;100.00
12146;BME280;6136;47.032;15.398;2023-01-30T05:38:57;97723.19;;;-4.17;100.00
12146;BME280;6136;47.032;15.398;2023-01-30T05:41:25;97717.16;;;-4.19;100.00
12146;BME280;6136;47.032;15.398;2023-01-30T05:43:54;97715.44;;;-4.23;100.00
12146;BME280;6136;47.032;15.398;2023-01-30T05:46:23;97711.97;;;-4.21;100.00
12146;BME280;6136;47.032;15.398;2023-01-30T05:48:51;97718.91;;;-4.32;100.00
12146;BME280;6136;47.032;15.398;2023-01-30T05:51:22;97720.63;;;-4.51;100.00
12146;BME280;6136;47.032;15.398;2023-01-30T05:53:50;97721.50;;;-4.49;100.00
12146;BME280;6136;47.032;15.398;2023-01-30T05:56:19;97705.97;;;-4.44;100.00
12146;BME280;6136;47.032;15.398;2023-01-30T05:58:52;97703.41;;;-4.46;100.00
12146;BME280;6136;47.032;15.398;2023-01-30T06:01:23;97701.69;;;-4.39;100.00
12146;BME280;6136;47.032;15.398;2023-01-30T06:03:52;97699.09;;;-4.41;100.00
12146;BME280;6136;47.032;15.398;2023-01-30T06:06:21;97703.38;;;-4.37;100.00
12146;BME280;6136;47.032;15.398;2023-01-30T06:08:52;97705.13;;;-4.42;100.00
12146;BME280;6136;47.032;15.398;2023-01-30T06:11:21;97688.72;;;-4.32;100.00
12146;BME280;6136;47.032;15.398;2023-01-30T06:13:49;97697.31;;;-4.17;100.00
12146;BME280;6136;47.032;15.398;2023-01-30T06:16:18;97708.50;;;-4.09;100.00
12146;BME280;6136;47.032;15.398;2023-01-30T06:18:47;97709.34;;;-4.07;100.00
12146;BME280;6136;47.032;15.398;2023-01-30T06:21:15;97708.53;;;-4.17;100.00
12146;BME280;6136;47.032;15.398;2023-01-30T06:23:44;97689.56;;;-4.26;100.00
12146;BME280;6136;47.032;15.398;2023-01-30T06:26:12;97695.63;;;-4.24;100.00
12146;BME280;6136;47.032;15.398;2023-01-30T06:28:40;97677.50;;;-4.26;100.00
12146;BME280;6136;47.032;15.398;2023-01-30T06:31:08;97681.81;;;-4.23;100.00
12146;BME280;6136;47.032;15.398;2023-01-30T06:33:37;97677.47;;;-4.20;100.00
12146;BME280;6136;47.032;15.398;2023-01-30T06:36:07;97698.16;;;-4.00;100.00
12146;BME280;6136;47.032;15.398;2023-01-30T06:38:35;97711.03;;;-3.91;100.00
12146;BME280;6136;47.032;15.398;2023-01-30T06:41:04;97705.84;;;-3.79;100.00
12146;BME280;6136;47.032;15.398;2023-01-30T06:43:32;97695.44;;;-3.76;100.00
12146;BME280;6136;47.032;15.398;2023-01-30T06:46:00;97702.31;;;-3.66;100.00
12146;BME280;6136;47.032;15.398;2023-01-30T06:48:29;97704.03;;;-3.59;100.00
12146;BME280;6136;47.032;15.398;2023-01-30T06:50:57;97702.28;;;-3.57;100.00
12146;BME280;6136;47.032;15.398;2023-01-30T06:53:27;97703.91;;;-3.34;100.00
12146;BME280;6136;47.032;15.398;2023-01-30T06:56:00;97689.19;;;-3.28;100.00
12146;BME280;6136;47.032;15.398;2023-01-30T06:58:29;97690.00;;;-3.21;100.00
12146;BME280;6136;47.032;15.398;2023-01-30T07:00:57;97684.72;;;-3.10;100.00
12146;BME280;6136;47.032;15.398;2023-01-30T07:03:25;97686.34;;;-2.96;100.00
12146;BME280;6136;47.032;15.398;2023-01-30T07:05:53;97684.63;;;-2.91;100.00
12146;BME280;6136;47.032;15.398;2023-01-30T07:08:21;97688.84;;;-2.81;100.00
12146;BME280;6136;47.032;15.398;2023-01-30T07:10:51;97684.44;;;-2.69;100.00
12146;BME280;6136;47.032;15.398;2023-01-30T07:13:19;97699.06;;;-2.61;100.00
12146;BME280;6136;47.032;15.398;2023-01-30T07:15:47;97703.41;;;-2.61;100.00
12146;BME280;6136;47.032;15.398;2023-01-30T07:18:16;97700.75;;;-2.58;100.00
12146;BME280;6136;47.032;15.398;2023-01-30T07:20:46;97701.56;;;-2.50;100.00
12146;BME280;6136;47.032;15.398;2023-01-30T07:23:14;97682.59;;;-2.55;100.00
12146;BME280;6136;47.032;15.398;2023-01-30T07:25:43;97680.00;;;-2.58;100.00
12146;BME280;6136;47.032;15.398;2023-01-30T07:28:13;97676.56;;;-2.59;100.00
12146;BME280;6136;47.032;15.398;2023-01-30T07:30:41;97664.38;;;-2.49;100.00
12146;BME280;6136;47.032;15.398;2023-01-30T07:33:09;97666.97;;;-2.49;100.00
12146;BME280;6136;47.032;15.398;2023-01-30T07:35:37;97671.28;;;-2.47;100.00
12146;BME280;6136;47.032;15.398;2023-01-30T07:38:05;97667.66;;;-2.32;100.00
12146;BME280;6136;47.032;15.398;2023-01-30T07:40:34;97664.22;;;-2.32;100.00
12146;BME280;6136;47.032;15.398;2023-01-30T07:43:03;97662.41;;;-2.23;100.00
12146;BME280;6136;47.032;15.398;2023-01-30T07:45:37;97638.19;;;-2.23;100.00
12146;BME280;6136;47.032;15.398;2023-01-30T07:48:06;97638.91;;;-2.14;100.00
12146;BME280;6136;47.032;15.398;2023-01-30T07:50:35;97641.41;;;-2.03;100.00
12146;BME280;6136;47.032;15.398;2023-01-30T07:53:04;97637.09;;;-2.06;100.00
12146;BME280;6136;47.032;15.398;2023-01-30T07:55:33;97622.22;;;-1.91;100.00
12146;BME280;6136;47.032;15.398;2023-01-30T07:58:02;97631.72;;;-1.90;100.00
12146;BME280;6136;47.032;15.398;2023-01-30T08:00:31;97622.75;;;-1.65;100.00
12146;BME280;6136;47.032;15.398;2023-01-30T08:03:01;97622.78;;;-1.68;100.00
12146;BME280;6136;47.032;15.398;2023-01-30T08:05:29;97620.19;;;-1.70;100.00
12146;BME280;6136;47.032;15.398;2023-01-30T08:07:57;97633.22;;;-1.71;100.00
12146;BME280;6136;47.032;15.398;2023-01-30T08:10:26;97616.69;;;-1.66;100.00
12146;BME280;6136;47.032;15.398;2023-01-30T08:12:54;97611.31;;;-1.53;100.00
12146;BME280;6136;47.032;15.398;2023-01-30T08:15:22;97601.84;;;-1.56;100.00
12146;BME280;6136;47.032;15.398;2023-01-30T08:17:54;97599.28;;;-1.58;100.00
12146;BME280;6136;47.032;15.398;2023-01-30T08:20:28;97608.63;;;-1.47;100.00
12146;BME280;6136;47.032;15.398;2023-01-30T08:22:58;97607.72;;;-1.42;100.00
12146;BME280;6136;47.032;15.398;2023-01-30T08:25:28;97592.03;;;-1.37;100.00
12146;BME280;6136;47.032;15.398;2023-01-30T08:27:57;97590.84;;;-1.17;100.00
12146;BME280;6136;47.032;15.398;2023-01-30T08:30:25;97602.19;;;-1.21;100.00
12146;BME280;6136;47.032;15.398;2023-01-30T08:32:56;97605.44;;;-1.08;100.00
12146;BME280;6136;47.032;15.398;2023-01-30T08:35:26;97598.13;;;-0.83;100.00
12146;BME280;6136;47.032;15.398;2023-01-30T08:37:54;97595.63;;;-0.89;100.00
12146;BME280;6136;47.032;15.398;2023-01-30T08:40:22;97590.47;;;-0.92;100.00
12146;BME280;6136;47.032;15.398;2023-01-30T08:42:50;97590.84;;;-0.64;100.00
12146;BME280;6136;47.032;15.398;2023-01-30T08:45:18;97590.69;;;-0.55;100.00
12146;BME280;6136;47.032;15.398;2023-01-30T08:47:46;97586.75;;;-0.30;100.00
12146;BME280;6136;47.032;15.398;2023-01-30T08:50:15;97589.09;;;-0.16;100.00
12146;BME280;6136;47.032;15.398;2023-01-30T08:52:45;97582.13;;;0.26;100.00
12146;BME280;6136;47.032;15.398;2023-01-30T08:55:13;97582.34;;;0.92;100.00
12146;BME280;6136;47.032;15.398;2023-01-30T08:57:41;97561.66;;;1.20;100.00
12146;BME280;6136;47.032;15.398;2023-01-30T09:00:11;97562.63;;;1.82;100.00
12146;BME280;6136;47.032;15.398;2023-01-30T09:02:39;97560.19;;;1.76;100.00
12146;BME280;6136;47.032;15.398;2023-01-30T09:05:08;97557.44;;;2.12;98.31
12146;BME280;6136;47.032;15.398;2023-01-30T09:07:36;97547.56;;;2.21;98.26
12146;BME280;6136;47.032;15.398;2023-01-30T09:10:07;97543.31;;;2.17;97.77
12146;BME280;6136;47.032;15.398;2023-01-30T09:12:35;97545.50;;;2.02;98.09
12146;BME280;6136;47.032;15.398;2023-01-30T09:15:05;97526.97;;;2.11;99.04
12146;BME280;6136;47.032;15.398;2023-01-30T09:17:34;97532.84;;;1.88;99.80
12146;BME280;6136;47.032;15.398;2023-01-30T09:20:02;97523.19;;;2.21;98.03
12146;BME280;6136;47.032;15.398;2023-01-30T09:22:31;97526.19;;;2.64;97.10
12146;BME280;6136;47.032;15.398;2023-01-30T09:24:59;97511.72;;;2.81;94.54
12146;BME280;6136;47.032;15.398;2023-01-30T09:27:28;97516.63;;;2.90;96.94
12146;BME280;6136;47.032;15.398;2023-01-30T09:29:57;97518.72;;;2.80;89.93
12146;BME280;6136;47.032;15.398;2023-01-30T09:32:25;97515.13;;;2.83;93.52
12146;BME280;6136;47.032;15.398;2023-01-30T09:34:53;97506.38;;;2.84;93.66
12146;BME280;6136;47.032;15.398;2023-01-30T09:37:21;97504.91;;;2.75;93.06
12146;BME280;6136;47.032;15.398;2023-01-30T09:39:49;97496.41;;;2.68;92.86
12146;BME280;6136;47.032;15.398;2023-01-30T09:42:51;97502.69;;;2.63;90.64
12146;BME280;6136;47.032;15.398;2023-01-30T09:45:33;97498.31;;;2.63;93.17
12146;BME280;6136;47.032;15.398;2023-01-30T09:48:12;97485.94;;;2.68;94.54
12146;BME280;6136;47.032;15.398;2023-01-30T09:53:47;97497.50;;;3.14;90.08
12146;BME280;6136;47.032;15.398;2023-01-30T09:56:17;97483.88;;;3.04;92.00
12146;BME280;6136;47.032;15.398;2023-01-30T09:58:49;97481.03;;;3.60;86.20
12146;BME280;6136;47.032;15.398;2023-01-30T10:01:24;97477.84;;;3.52;86.31
12146;BME280;6136;47.032;15.398;2023-01-30T10:04:04;97466.34;;;3.56;84.69
12146;BME280;6136;47.032;15.398;2023-01-30T10:06:42;97466.69;;;3.22;83.51
12146;BME280;6136;47.032;15.398;2023-01-30T10:09:18;97456.00;;;3.28;85.27
12146;BME280;6136;47.032;15.398;2023-01-30T10:12:01;97467.00;;;3.38;85.93
12146;BME280;6136;47.032;15.398;2023-01-30T10:14:52;97461.03;;;3.58;87.36
12146;BME280;6136;47.032;15.398;2023-01-30T10:17:30;97458.97;;;3.42;86.98
12146;BME280;6136;47.032;15.398;2023-01-30T10:20:15;97443.81;;;3.27;87.41
12146;BME280;6136;47.032;15.398;2023-01-30T10:22:55;97439.59;;;3.48;87.21
12146;BME280;6136;47.032;15.398;2023-01-30T10:25:31;97443.63;;;3.80;83.63
12146;BME280;6136;47.032;15.398;2023-01-30T10:28:05;97437.66;;;4.00;83.03
12146;BME280;6136;47.032;15.398;2023-01-30T10:30:39;97442.13;;;3.96;83.58
12146;BME280;6136;47.032;15.398;2023-01-30T10:33:17;97444.03;;;3.93;85.03
12146;BME280;6136;47.032;15.398;2023-01-30T10:35:56;97439.44;;;4.43;86.36
12146;BME280;6136;47.032;15.398;2023-01-30T10:38:29;97434.56;;;4.34;83.30
12146;BME280;6136;47.032;15.398;2023-01-30T10:41:05;97434.19;;;4.43;83.89
12146;BME280;6136;47.032;15.398;2023-01-30T10:43:40;97426.44;;;4.82;79.94
12146;BME280;6136;47.032;15.398;2023-01-30T10:46:25;97423.00;;;5.01;80.23
12146;BME280;6136;47.032;15.398;2023-01-30T10:49:01;97419.72;;;5.37;75.73
12146;BME280;6136;47.032;15.398;2023-01-30T10:51:40;97408.69;;;5.68;74.38
12146;BME280;6136;47.032;15.398;2023-01-30T10:54:13;97403.72;;;5.80;73.12
12146;BME280;6136;47.032;15.398;2023-01-30T10:56:51;97394.59;;;5.50;74.75
12146;BME280;6136;47.032;15.398;2023-01-30T10:59:23;97377.66;;;5.18;76.03
12146;BME280;6136;47.032;15.398;2023-01-30T11:02:05;97371.47;;;5.77;73.83
12146;BME280;6136;47.032;15.398;2023-01-30T11:04:44;97369.84;;;6.48;73.48
12146;BME280;6136;47.032;15.398;2023-01-30T11:07:15;97357.94;;;6.75;69.72
12146;BME280;6136;47.032;15.398;2023-01-30T11:09:45;97360.09;;;7.52;69.20
12146;BME280;6136;47.032;15.398;2023-01-30T11:12:14;97350.44;;;7.68;66.67
12146;BME280;6136;47.032;15.398;2023-01-30T11:14:52;97344.13;;;7.86;66.14
12146;BME280;6136;47.032;15.398;2023-01-30T11:17:30;97343.22;;;7.87;65.47
12146;BME280;6136;47.032;15.398;2023-01-30T11:20:13;97327.38;;;8.18;65.90
12146;BME280;6136;47.032;15.398;2023-01-30T11:22:48;97331.66;;;8.37;63.74
12146;BME280;6136;47.032;15.398;2023-01-30T11:25:19;97324.38;;;8.56;62.65
12146;BME280;6136;47.032;15.398;2023-01-30T11:27:52;97321.09;;;8.37;62.75
12146;BME280;6136;47.032;15.398;2023-01-30T11:30:26;97314.28;;;8.63;64.74
12146;BME280;6136;47.032;15.398;2023-01-30T11:33:05;97307.78;;;8.98;62.71
12146;BME280;6136;47.032;15.398;2023-01-30T11:35:42;97292.31;;;9.06;60.99
12146;BME280;6136;47.032;15.398;2023-01-30T11:38:20;97273.63;;;9.09;59.10
12146;BME280;6136;47.032;15.398;2023-01-30T11:40:49;97276.06;;;9.26;56.97
12146;BME280;6136;47.032;15.398;2023-01-30T11:43:17;97278.22;;;8.91;59.97
12146;BME280;6136;47.032;15.398;2023-01-30T11:45:47;97288.78;;;8.91;59.72
12146;BME280;6136;47.032;15.398;2023-01-30T11:48:20;97270.88;;;8.97;60.83
12146;BME280;6136;47.032;15.398;2023-01-30T11:51:10;97265.41;;;9.00;59.96
12146;BME280;6136;47.032;15.398;2023-01-30T11:53:40;97261.44;;;9.07;58.77
12146;BME280;6136;47.032;15.398;2023-01-30T11:56:16;97269.34;;;9.49;59.47
12146;BME280;6136;47.032;15.398;2023-01-30T11:58:54;97267.72;;;9.75;57.15
12146;BME280;6136;47.032;15.398;2023-01-30T12:01:26;97255.94;;;9.66;57.58
12146;BME280;6136;47.032;15.398;2023-01-30T12:03:57;97264.88;;;9.78;57.45
12146;BME280;6136;47.032;15.398;2023-01-30T12:06:28;97262.25;;;10.05;55.51
12146;BME280;6136;47.032;15.398;2023-01-30T12:08:57;97252.53;;;10.05;55.98
12146;BME280;6136;47.032;15.398;2023-01-30T12:11:39;97254.31;;;9.64;58.16
12146;BME280;6136;47.032;15.398;2023-01-30T12:14:35;97246.53;;;9.48;56.96
12146;BME280;6136;47.032;15.398;2023-01-30T12:17:12;97235.94;;;9.48;58.20
12146;BME280;6136;47.032;15.398;2023-01-30T12:19:54;97223.28;;;9.39;58.72
12146;BME280;6136;47.032;15.398;2023-01-30T12:22:28;97218.53;;;9.99;56.62
12146;BME280;6136;47.032;15.398;2023-01-30T12:25:00;97216.00;;;9.84;56.61
12146;BME280;6136;47.032;15.398;2023-01-30T12:27:45;97220.78;;;9.64;57.53
12146;BME280;6136;47.032;15.398;2023-01-30T12:30:22;97207.31;;;9.82;57.36
12146;BME280;6136;47.032;15.398;2023-01-30T12:32:55;97212.38;;;9.99;57.09
12146;BME280;6136;47.032;15.398;2023-01-30T12:35:35;97210.84;;;9.95;58.70
12146;BME280;6136;47.032;15.398;2023-01-30T12:38:17;97203.88;;;9.94;58.66
12146;BME280;6136;47.032;15.398;2023-01-30T12:40:55;97197.22;;;10.01;57.01
12146;BME280;6136;47.032;15.398;2023-01-30T12:43:41;97208.31;;;9.66;58.32
12146;BME280;6136;47.032;15.398;2023-01-30T12:46:29;97206.09;;;9.46;57.65
12146;BME280;6136;47.032;15.398;2023-01-30T12:49:13;97200.03;;;10.12;58.24
12146;BME280;6136;47.032;15.398;2023-01-30T12:52:08;97192.47;;;10.33;56.02
12146;BME280;6136;47.032;15.398;2023-01-30T12:54:47;97193.13;;;10.09;56.55
12146;BME280;6136;47.032;15.398;2023-01-30T12:57:23;97184.72;;;9.90;56.46
12146;BME280;6136;47.032;15.398;2023-01-30T13:00:01;97182.19;;;10.28;57.47
12146;BME280;6136;47.032;15.398;2023-01-30T13:02:44;97178.84;;;10.77;54.82
12146;BME280;6136;47.032;15.398;2023-01-30T13:05:21;97174.91;;;10.70;55.11
12146;BME280;6136;47.032;15.398;2023-01-30T13:08:05;97168.25;;;10.12;55.07
12146;BME280;6136;47.032;15.398;2023-01-30T13:10:40;97164.38;;;10.30;55.77
12146;BME280;6136;47.032;15.398;2023-01-30T13:13:16;97157.75;;;10.37;56.83
12146;BME280;6136;47.032;15.398;2023-01-30T13:15:50;97159.13;;;10.16;56.42
12146;BME280;6136;47.032;15.398;2023-01-30T13:18:25;97158.59;;;9.71;58.08
12146;BME280;6136;47.032;15.398;2023-01-30T13:21:03;97164.16;;;9.94;56.86
12146;BME280;6136;47.032;15.398;2023-01-30T13:23:42;97165.16;;;9.79;56.65
12146;BME280;6136;47.032;15.398;2023-01-30T13:26:18;97164.50;;;10.02;56.92